createdAt,value
2022-10-13T00:00:54.372Z,89.12
2022-10-13T00:01:54.260Z,89.12
2022-10-13T00:02:54.270Z,89.12
2022-10-13T00:04:04.236Z,89.12
2022-10-13T00:04:54.223Z,89.12
2022-10-13T00:05:54.209Z,89.08
2022-10-13T00:07:00.229Z,89.12
2022-10-13T00:07:54.178Z,89.12
2022-10-13T00:08:54.185Z,88.98
2022-10-13T00:10:00.685Z,89.02
2022-10-13T00:11:00.671Z,89.02
2022-10-13T00:11:54.138Z,89.02
2022-10-13T00:12:54.157Z,88.98
2022-10-13T00:13:54.104Z,89.02
2022-10-13T00:15:00.118Z,88.92
2022-10-13T00:16:00.098Z,88.92
2022-10-13T00:17:00.100Z,88.78
2022-10-13T00:17:54.055Z,88.67
2022-10-13T00:19:04.835Z,88.57
2022-10-13T00:20:00.045Z,88.37
2022-10-13T00:20:54.027Z,88.26
2022-10-13T00:21:54.038Z,88.26
2022-10-13T00:22:53.998Z,88.26
2022-10-13T00:23:53.986Z,88.26
2022-10-13T00:24:54.001Z,88.06
2022-10-13T00:25:53.955Z,88.06
2022-10-13T00:26:53.965Z,87.96
2022-10-13T00:27:53.936Z,87.96
2022-10-13T00:28:53.964Z,87.96
2022-10-13T00:29:53.921Z,87.96
2022-10-13T00:30:53.909Z,87.85
2022-10-13T00:31:53.896Z,87.85
2022-10-13T00:32:53.870Z,87.96
2022-10-13T00:33:53.854Z,87.96
2022-10-13T00:34:53.862Z,88.06
2022-10-13T00:35:53.854Z,88.06
2022-10-13T00:36:53.825Z,87.96
2022-10-13T00:37:53.805Z,88.06
2022-10-13T00:38:53.794Z,87.96
2022-10-13T00:39:53.796Z,87.96
2022-10-13T00:40:53.787Z,87.96
2022-10-13T00:41:53.753Z,87.96
2022-10-13T00:42:53.755Z,87.96
2022-10-13T00:43:53.736Z,88.06
2022-10-13T00:44:53.726Z,88.06
2022-10-13T00:45:53.719Z,88.06
2022-10-13T00:46:53.688Z,88.06
2022-10-13T00:47:53.684Z,88.06
2022-10-13T00:48:53.696Z,88.06
2022-10-13T00:49:53.660Z,88.06
2022-10-13T00:50:53.650Z,87.96
2022-10-13T00:51:53.858Z,87.96
2022-10-13T00:52:53.621Z,88.06
2022-10-13T00:53:53.625Z,88.06
2022-10-13T00:54:53.610Z,88.06
2022-10-13T00:55:59.636Z,88.17
2022-10-13T00:56:53.571Z,88.26
2022-10-13T00:57:53.567Z,88.26
2022-10-13T00:58:53.551Z,88.41
2022-10-13T00:59:53.549Z,88.51
2022-10-13T01:00:53.583Z,88.41
2022-10-13T01:01:53.504Z,88.51
2022-10-13T01:02:53.495Z,88.61
2022-10-13T01:03:53.481Z,88.61
2022-10-13T01:04:53.466Z,88.61
2022-10-13T01:05:53.455Z,88.71
2022-10-13T01:06:53.461Z,88.71
2022-10-13T01:07:53.432Z,88.82
2022-10-13T01:08:53.420Z,88.82
2022-10-13T01:09:53.421Z,88.82
2022-10-13T01:10:53.390Z,88.82
2022-10-13T01:11:53.380Z,88.82
2022-10-13T01:12:53.453Z,88.82
2022-10-13T01:13:53.357Z,88.71
2022-10-13T01:14:53.409Z,88.71
2022-10-13T01:15:53.331Z,88.71
2022-10-13T01:16:53.318Z,88.71
2022-10-13T01:17:53.307Z,88.82
2022-10-13T01:18:53.309Z,88.82
2022-10-13T01:19:53.297Z,88.71
2022-10-13T01:20:53.266Z,88.71
2022-10-13T01:21:53.254Z,88.71
2022-10-13T01:22:53.241Z,88.61
2022-10-13T01:23:53.242Z,88.61
2022-10-13T01:24:53.237Z,88.61
2022-10-13T01:25:53.235Z,88.61
2022-10-13T01:26:53.197Z,88.71
2022-10-13T01:27:53.176Z,88.71
2022-10-13T01:28:53.175Z,88.67
2022-10-13T01:29:53.172Z,88.71
2022-10-13T01:30:53.159Z,88.82
2022-10-13T01:31:53.128Z,88.82
2022-10-13T01:32:53.139Z,88.82
2022-10-13T01:33:53.105Z,88.82
2022-10-13T01:34:53.104Z,88.71
2022-10-13T01:35:53.096Z,88.71
2022-10-13T01:36:53.068Z,88.71
2022-10-13T01:37:53.060Z,88.71
2022-10-13T01:38:53.043Z,88.82
2022-10-13T01:39:53.031Z,88.92
2022-10-13T01:40:53.021Z,88.82
2022-10-13T01:41:52.996Z,88.78
2022-10-13T01:42:53.003Z,88.82
2022-10-13T01:43:52.980Z,88.71
2022-10-13T01:44:52.958Z,88.71
2022-10-13T01:45:52.951Z,88.82
2022-10-13T01:46:52.941Z,88.82
2022-10-13T01:47:52.932Z,88.82
2022-10-13T01:48:52.923Z,88.78
2022-10-13T01:49:52.913Z,88.92
2022-10-13T01:50:52.902Z,88.98
2022-10-13T01:51:52.885Z,88.92
2022-10-13T01:52:52.866Z,88.92
2022-10-13T01:53:52.859Z,88.92
2022-10-13T01:54:52.867Z,88.98
2022-10-13T01:55:52.821Z,89.02
2022-10-13T01:56:52.839Z,89.02
2022-10-13T01:57:52.804Z,89.02
2022-10-13T01:58:52.787Z,88.92
2022-10-13T01:59:52.777Z,88.78
2022-10-13T02:00:52.795Z,88.88
2022-10-13T02:01:52.752Z,88.92
2022-10-13T02:02:52.741Z,88.88
2022-10-13T02:03:52.764Z,88.88
2022-10-13T02:04:52.714Z,88.78
2022-10-13T02:05:52.696Z,88.78
2022-10-13T02:06:52.731Z,88.78
2022-10-13T02:07:52.671Z,88.78
2022-10-13T02:08:52.657Z,88.98
2022-10-13T02:09:52.653Z,89.02
2022-10-13T02:10:52.636Z,88.98
2022-10-13T02:11:52.634Z,88.98
2022-10-13T02:12:52.634Z,88.98
2022-10-13T02:13:52.606Z,88.98
2022-10-13T02:14:52.584Z,88.88
2022-10-13T02:15:52.575Z,88.98
2022-10-13T02:16:52.558Z,88.88
2022-10-13T02:17:52.553Z,88.98
2022-10-13T02:18:52.576Z,88.98
2022-10-13T02:19:52.520Z,88.98
2022-10-13T02:20:52.516Z,89.08
2022-10-13T02:21:52.522Z,89.18
2022-10-13T02:22:52.493Z,89.18
2022-10-13T02:23:52.470Z,89.28
2022-10-13T02:24:52.477Z,89.32
2022-10-13T02:25:52.446Z,89.28
2022-10-13T02:26:52.431Z,89.18
2022-10-13T02:27:52.428Z,89.18
2022-10-13T02:28:52.449Z,89.18
2022-10-13T02:29:52.402Z,89.08
2022-10-13T02:30:52.412Z,89.08
2022-10-13T02:31:52.375Z,89.08
2022-10-13T02:32:52.360Z,89.08
2022-10-13T02:33:52.346Z,89.08
2022-10-13T02:34:52.348Z,89.08
2022-10-13T02:35:52.330Z,89.08
2022-10-13T02:36:52.323Z,89.18
2022-10-13T02:37:52.307Z,89.18
2022-10-13T02:38:52.292Z,89.08
2022-10-13T02:39:52.268Z,89.08
2022-10-13T02:40:52.307Z,88.98
2022-10-13T02:41:52.251Z,88.98
2022-10-13T02:42:52.253Z,88.98
2022-10-13T02:43:52.222Z,88.84
2022-10-13T02:44:52.208Z,88.88
2022-10-13T02:45:52.301Z,88.88
2022-10-13T02:46:52.190Z,88.88
2022-10-13T02:47:52.174Z,88.88
2022-10-13T02:48:52.180Z,88.84
2022-10-13T02:49:52.141Z,88.84
2022-10-13T02:50:52.134Z,88.73
2022-10-13T02:51:58.130Z,88.73
2022-10-13T02:52:52.119Z,88.88
2022-10-13T02:53:52.106Z,88.88
2022-10-13T02:54:52.096Z,88.84
2022-10-13T02:55:52.080Z,88.73
2022-10-13T02:56:52.067Z,88.84
2022-10-13T02:57:52.043Z,88.84
2022-10-13T02:58:52.033Z,88.84
2022-10-13T02:59:52.034Z,88.88
2022-10-13T03:00:52.097Z,88.88
2022-10-13T03:01:52.000Z,88.88
2022-10-13T03:02:51.983Z,88.98
2022-10-13T03:03:51.970Z,88.98
2022-10-13T03:04:51.971Z,88.93
2022-10-13T03:05:51.949Z,88.98
2022-10-13T03:06:51.947Z,88.98
2022-10-13T03:07:51.936Z,89.08
2022-10-13T03:08:51.906Z,89.08
2022-10-13T03:09:51.890Z,89.08
2022-10-13T03:10:51.903Z,89.18
2022-10-13T03:11:51.869Z,89.28
2022-10-13T03:12:51.874Z,89.28
2022-10-13T03:13:51.843Z,89.28
2022-10-13T03:14:51.849Z,89.39
2022-10-13T03:15:51.820Z,89.39
2022-10-13T03:16:51.821Z,89.49
2022-10-13T03:17:51.803Z,89.49
2022-10-13T03:18:51.806Z,89.49
2022-10-13T03:19:51.777Z,89.49
2022-10-13T03:20:51.758Z,89.49
2022-10-13T03:21:51.777Z,89.59
2022-10-13T03:22:51.733Z,89.59
2022-10-13T03:23:51.734Z,89.59
2022-10-13T03:24:51.721Z,89.59
2022-10-13T03:25:51.690Z,89.49
2022-10-13T03:26:51.687Z,89.59
2022-10-13T03:27:51.686Z,89.49
2022-10-13T03:28:51.734Z,89.49
2022-10-13T03:29:51.639Z,89.49
2022-10-13T03:30:51.645Z,89.49
2022-10-13T03:31:51.617Z,89.49
2022-10-13T03:32:51.641Z,89.49
2022-10-13T03:33:51.591Z,89.49
2022-10-13T03:34:51.577Z,89.49
2022-10-13T03:35:51.567Z,89.34
2022-10-13T03:36:51.578Z,89.49
2022-10-13T03:37:51.557Z,89.39
2022-10-13T03:38:51.538Z,89.49
2022-10-13T03:39:51.536Z,89.49
2022-10-13T03:40:51.507Z,89.34
2022-10-13T03:41:51.485Z,89.34
2022-10-13T03:42:51.522Z,89.28
2022-10-13T03:43:51.468Z,89.25
2022-10-13T03:44:56.103Z,89.25
2022-10-13T03:45:51.442Z,89.14
2022-10-13T03:46:51.436Z,89.14
2022-10-13T03:47:51.417Z,89.04
2022-10-13T03:48:51.421Z,88.93
2022-10-13T03:49:51.395Z,88.93
2022-10-13T03:50:51.370Z,88.93
2022-10-13T03:51:51.378Z,88.93
2022-10-13T03:52:51.350Z,88.93
2022-10-13T03:53:51.334Z,88.84
2022-10-13T03:54:51.333Z,88.84
2022-10-13T03:55:51.309Z,88.84
2022-10-13T03:56:51.298Z,88.93
2022-10-13T03:57:51.293Z,88.84
2022-10-13T03:58:51.318Z,88.84
2022-10-13T03:59:51.271Z,88.84
2022-10-13T04:00:51.268Z,88.93
2022-10-13T04:01:51.269Z,88.84
2022-10-13T04:02:51.230Z,88.84
2022-10-13T04:03:51.204Z,88.84
2022-10-13T04:04:51.202Z,88.84
2022-10-13T04:05:51.180Z,88.73
2022-10-13T04:06:51.195Z,88.73
2022-10-13T04:07:51.178Z,88.63
2022-10-13T04:08:51.156Z,88.63
2022-10-13T04:09:51.128Z,88.53
2022-10-13T04:10:51.163Z,88.53
2022-10-13T04:11:51.099Z,88.53
2022-10-13T04:12:51.101Z,88.39
2022-10-13T04:13:51.091Z,88.28
2022-10-13T04:14:51.106Z,88.28
2022-10-13T04:15:51.053Z,88.28
2022-10-13T04:16:51.078Z,88.39
2022-10-13T04:17:51.040Z,88.39
2022-10-13T04:18:51.023Z,88.28
2022-10-13T04:19:51.003Z,88.32
2022-10-13T04:20:51.018Z,88.28
2022-10-13T04:21:50.980Z,88.28
2022-10-13T04:22:50.979Z,88.28
2022-10-13T04:23:50.956Z,88.18
2022-10-13T04:24:50.989Z,88.08
2022-10-13T04:25:50.927Z,87.98
2022-10-13T04:26:50.911Z,87.98
2022-10-13T04:27:50.904Z,87.98
2022-10-13T04:28:50.960Z,88.08
2022-10-13T04:29:50.880Z,88.08
2022-10-13T04:30:50.882Z,87.98
2022-10-13T04:31:50.898Z,87.98
2022-10-13T04:32:50.876Z,87.98
2022-10-13T04:33:50.825Z,87.88
2022-10-13T04:34:50.806Z,87.88
2022-10-13T04:35:50.807Z,87.77
2022-10-13T04:36:50.790Z,87.77
2022-10-13T04:37:50.769Z,87.77
2022-10-13T04:38:50.767Z,87.77
2022-10-13T04:39:50.768Z,87.88
2022-10-13T04:40:50.744Z,87.77
2022-10-13T04:41:56.753Z,87.67
2022-10-13T04:42:50.708Z,87.67
2022-10-13T04:43:50.691Z,87.63
2022-10-13T04:44:50.684Z,87.67
2022-10-13T04:45:50.666Z,87.67
2022-10-13T04:46:50.668Z,87.57
2022-10-13T04:47:50.659Z,87.43
2022-10-13T04:48:50.639Z,87.43
2022-10-13T04:49:50.663Z,87.57
2022-10-13T04:50:50.621Z,87.53
2022-10-13T04:51:50.588Z,87.57
2022-10-13T04:52:50.576Z,87.57
2022-10-13T04:53:50.570Z,87.57
2022-10-13T04:54:50.546Z,87.43
2022-10-13T04:55:50.550Z,87.32
2022-10-13T04:56:50.528Z,87.23
2022-10-13T04:57:50.555Z,87.23
2022-10-13T04:58:50.505Z,87.12
2022-10-13T04:59:50.513Z,87.12
2022-10-13T05:00:50.535Z,87.02
2022-10-13T05:01:50.475Z,87.02
2022-10-13T05:02:50.461Z,87.02
2022-10-13T05:03:50.443Z,86.92
2022-10-13T05:04:50.449Z,87.02
2022-10-13T05:05:50.472Z,86.92
2022-10-13T05:07:15.941Z,86.92
2022-10-13T05:07:50.393Z,86.82
2022-10-13T05:08:50.368Z,86.82
2022-10-13T05:09:50.380Z,86.82
2022-10-13T05:10:50.349Z,86.71
2022-10-13T05:11:50.347Z,86.71
2022-10-13T05:12:50.355Z,86.61
2022-10-13T05:13:50.327Z,86.61
2022-10-13T05:14:50.241Z,86.51
2022-10-13T05:15:50.301Z,86.30
2022-10-13T05:16:50.268Z,86.21
2022-10-13T05:17:50.276Z,86.21
2022-10-13T05:18:50.235Z,86.21
2022-10-13T05:19:50.178Z,86.10
2022-10-13T05:20:50.163Z,86.10
2022-10-13T05:21:50.254Z,86.10
2022-10-13T05:22:50.215Z,86.10
2022-10-13T05:23:50.148Z,86.10
2022-10-13T05:24:50.109Z,86.10
2022-10-13T05:25:50.114Z,86.00
2022-10-13T05:26:50.101Z,85.80
2022-10-13T05:27:50.101Z,85.80
2022-10-13T05:28:50.133Z,85.80
2022-10-13T05:29:50.103Z,85.69
2022-10-13T05:30:50.032Z,85.66
2022-10-13T05:31:50.047Z,85.49
2022-10-13T05:32:53.742Z,85.35
2022-10-13T05:33:50.007Z,85.25
2022-10-13T05:34:49.986Z,85.25
2022-10-13T05:35:50.028Z,85.25
2022-10-13T05:36:49.972Z,85.14
2022-10-13T05:37:49.989Z,85.14
2022-10-13T05:38:49.955Z,85.14
2022-10-13T05:39:49.925Z,85.14
2022-10-13T05:40:49.944Z,85.05
2022-10-13T05:41:49.910Z,85.05
2022-10-13T05:42:49.883Z,84.94
2022-10-13T05:43:49.875Z,84.94
2022-10-13T05:44:49.917Z,84.84
2022-10-13T05:45:49.865Z,84.84
2022-10-13T05:46:49.837Z,84.74
2022-10-13T05:47:49.841Z,84.84
2022-10-13T05:48:49.807Z,84.84
2022-10-13T05:49:49.797Z,84.84
2022-10-13T05:50:49.801Z,84.74
2022-10-13T05:51:49.767Z,84.64
2022-10-13T05:52:49.766Z,84.64
2022-10-13T05:53:54.101Z,84.53
2022-10-13T05:54:49.738Z,84.53
2022-10-13T05:55:49.762Z,84.64
2022-10-13T05:56:49.710Z,84.64
2022-10-13T05:57:49.694Z,84.64
2022-10-13T05:58:49.698Z,84.64
2022-10-13T05:59:49.845Z,84.53
2022-10-13T06:00:49.679Z,84.64
2022-10-13T06:01:49.681Z,84.64
2022-10-13T06:02:49.641Z,84.43
2022-10-13T06:03:49.623Z,84.43
2022-10-13T06:04:49.621Z,84.43
2022-10-13T06:05:49.631Z,84.33
2022-10-13T06:06:49.639Z,84.33
2022-10-13T06:07:50.639Z,84.33
2022-10-13T06:08:49.602Z,84.33
2022-10-13T06:09:49.574Z,84.43
2022-10-13T06:10:49.588Z,84.43
2022-10-13T06:11:49.551Z,84.33
2022-10-13T06:12:49.507Z,84.23
2022-10-13T06:13:49.528Z,84.33
2022-10-13T06:14:49.506Z,84.33
2022-10-13T06:15:49.510Z,84.43
2022-10-13T06:16:49.494Z,84.43
2022-10-13T06:17:49.473Z,84.43
2022-10-13T06:18:49.440Z,84.43
2022-10-13T06:19:49.578Z,84.43
2022-10-13T06:20:49.684Z,84.43
2022-10-13T06:21:49.420Z,84.53
2022-10-13T06:22:49.454Z,84.43
2022-10-13T06:23:49.393Z,84.43
2022-10-13T06:24:49.351Z,84.33
2022-10-13T06:25:49.343Z,84.33
2022-10-13T06:26:49.334Z,84.23
2022-10-13T06:27:49.374Z,84.23
2022-10-13T06:28:51.710Z,84.23
2022-10-13T06:29:49.394Z,84.23
2022-10-13T06:30:49.303Z,84.12
2022-10-13T06:31:49.284Z,84.23
2022-10-13T06:32:49.284Z,84.23
2022-10-13T06:33:49.249Z,84.12
2022-10-13T06:34:49.224Z,84.03
2022-10-13T06:35:49.253Z,84.03
2022-10-13T06:36:49.235Z,84.03
2022-10-13T06:37:49.190Z,84.03
2022-10-13T06:38:49.196Z,83.92
2022-10-13T06:39:49.170Z,83.92
2022-10-13T06:40:49.148Z,83.82
2022-10-13T06:41:49.184Z,83.72
2022-10-13T06:42:49.152Z,83.68
2022-10-13T06:43:49.127Z,83.58
2022-10-13T06:44:49.345Z,83.48
2022-10-13T06:45:49.081Z,83.48
2022-10-13T06:46:49.099Z,83.58
2022-10-13T06:47:49.086Z,83.48
2022-10-13T06:48:49.057Z,83.48
2022-10-13T06:49:49.056Z,83.31
2022-10-13T06:50:49.031Z,83.27
2022-10-13T06:51:49.043Z,83.17
2022-10-13T06:52:49.026Z,83.17
2022-10-13T06:53:49.013Z,83.17
2022-10-13T06:54:48.969Z,83.17
2022-10-13T06:55:52.309Z,82.97
2022-10-13T06:56:48.949Z,82.97
2022-10-13T06:57:48.927Z,83.07
2022-10-13T06:58:48.919Z,82.87
2022-10-13T06:59:48.956Z,82.97
2022-10-13T07:00:49.014Z,82.76
2022-10-13T07:01:48.923Z,82.66
2022-10-13T07:02:48.867Z,82.66
2022-10-13T07:03:49.018Z,82.56
2022-10-13T07:04:48.960Z,82.66
2022-10-13T07:05:49.048Z,82.56
2022-10-13T07:06:49.781Z,82.35
2022-10-13T07:07:49.054Z,82.56
2022-10-13T07:08:48.848Z,82.35
2022-10-13T07:09:48.954Z,82.26
2022-10-13T07:10:48.777Z,82.21
2022-10-13T07:11:48.792Z,82.12
2022-10-13T07:12:48.896Z,81.91
2022-10-13T07:13:48.790Z,81.91
2022-10-13T07:14:48.734Z,81.81
2022-10-13T07:15:48.715Z,81.71
2022-10-13T07:16:48.711Z,81.81
2022-10-13T07:17:48.696Z,81.71
2022-10-13T07:18:48.670Z,81.71
2022-10-13T07:19:48.665Z,81.71
2022-10-13T07:20:48.705Z,81.60
2022-10-13T07:21:48.649Z,81.46
2022-10-13T07:22:48.615Z,81.37
2022-10-13T07:23:48.861Z,81.26
2022-10-13T07:24:48.633Z,81.16
2022-10-13T07:25:55.143Z,81.16
2022-10-13T07:26:48.578Z,80.96
2022-10-13T07:27:48.569Z,80.62
2022-10-13T07:28:48.657Z,80.41
2022-10-13T07:29:48.556Z,80.31
2022-10-13T07:30:48.510Z,80.00
2022-10-13T07:31:48.538Z,79.66
2022-10-13T07:32:48.510Z,79.22
2022-10-13T07:33:48.507Z,78.85
2022-10-13T07:34:48.487Z,78.85
2022-10-13T07:35:49.186Z,79.05
2022-10-13T07:36:48.453Z,78.51
2022-10-13T07:37:48.502Z,78.81
2022-10-13T07:38:48.480Z,78.61
2022-10-13T07:39:48.677Z,78.20
2022-10-13T07:40:48.430Z,78.41
2022-10-13T07:41:51.113Z,78.61
2022-10-13T07:42:48.903Z,78.81
2022-10-13T07:43:48.395Z,78.95
2022-10-13T07:44:48.373Z,79.05
2022-10-13T07:45:48.340Z,79.36
2022-10-13T07:46:48.324Z,79.16
2022-10-13T07:47:48.330Z,79.12
2022-10-13T07:48:48.329Z,79.32
2022-10-13T07:49:48.281Z,78.81
2022-10-13T07:50:48.283Z,78.57
2022-10-13T07:51:48.271Z,78.37
2022-10-13T07:52:48.535Z,78.81
2022-10-13T07:53:48.280Z,79.02
2022-10-13T07:54:48.280Z,78.78
2022-10-13T07:55:48.256Z,78.78
2022-10-13T07:56:48.196Z,78.81
2022-10-13T07:57:48.191Z,79.12
2022-10-13T07:58:48.170Z,78.91
2022-10-13T07:59:48.439Z,79.02
2022-10-13T08:00:48.216Z,78.91
2022-10-13T08:01:48.181Z,79.12
2022-10-13T08:02:48.158Z,78.61
2022-10-13T08:03:50.606Z,78.98
2022-10-13T08:04:48.323Z,78.78
2022-10-13T08:05:48.173Z,78.67
2022-10-13T08:06:48.189Z,78.57
2022-10-13T08:07:47.170Z,78.57
2022-10-13T08:08:48.109Z,78.88
2022-10-13T08:09:48.070Z,78.78
2022-10-13T08:10:48.090Z,78.23
2022-10-13T08:11:48.308Z,78.03
2022-10-13T08:12:48.873Z,78.13
2022-10-13T08:13:48.001Z,78.27
2022-10-13T08:15:48.281Z,78.33
2022-10-13T08:16:50.050Z,78.23
2022-10-13T08:17:47.951Z,78.23
2022-10-13T08:18:48.034Z,78.13
2022-10-13T08:19:49.080Z,78.44
2022-10-13T08:20:47.917Z,78.44
2022-10-13T08:22:05.537Z,77.93
2022-10-13T08:22:47.898Z,78.13
2022-10-13T08:23:47.893Z,78.03
2022-10-13T08:24:47.854Z,77.93
2022-10-13T08:25:54.377Z,77.93
2022-10-13T08:26:47.819Z,77.72
2022-10-13T08:27:52.021Z,77.48
2022-10-13T08:28:57.600Z,77.08
2022-10-13T08:29:47.814Z,77.18
2022-10-13T08:30:47.914Z,77.42
2022-10-13T08:32:47.777Z,77.38
2022-10-13T08:33:47.741Z,77.59
2022-10-13T08:34:47.719Z,77.59
2022-10-13T08:35:47.735Z,77.69
2022-10-13T08:36:47.711Z,77.38
2022-10-13T08:37:47.713Z,77.18
2022-10-13T08:38:47.658Z,76.87
2022-10-13T08:39:47.669Z,76.98
2022-10-13T08:40:47.631Z,77.28
2022-10-13T08:41:47.668Z,77.79
2022-10-13T08:42:47.611Z,77.59
2022-10-13T08:44:24.688Z,77.69
2022-10-13T08:45:21.802Z,77.28
2022-10-13T08:45:47.610Z,77.38
2022-10-13T08:46:47.768Z,77.18
2022-10-13T08:47:47.580Z,77.14
2022-10-13T08:48:47.540Z,76.84
2022-10-13T08:49:47.521Z,76.94
2022-10-13T08:50:47.513Z,77.04
2022-10-13T08:51:47.621Z,76.87
2022-10-13T08:52:48.200Z,77.18
2022-10-13T08:53:47.775Z,77.08
2022-10-13T08:54:47.481Z,76.84
2022-10-13T08:55:47.539Z,77.18
2022-10-13T08:56:47.623Z,77.25
2022-10-13T08:57:47.480Z,76.94
2022-10-13T08:58:47.485Z,76.84
2022-10-13T08:59:47.465Z,77.04
2022-10-13T09:00:47.423Z,77.14
2022-10-13T09:01:47.465Z,77.14
2022-10-13T09:02:47.384Z,77.25
2022-10-13T09:03:47.585Z,77.04
2022-10-13T09:04:47.414Z,76.94
2022-10-13T09:05:47.440Z,76.74
2022-10-13T09:06:47.568Z,76.84
2022-10-13T09:07:47.492Z,76.94
2022-10-13T09:08:47.302Z,77.04
2022-10-13T09:09:47.275Z,76.94
2022-10-13T09:10:47.507Z,76.60
2022-10-13T09:11:47.275Z,76.70
2022-10-13T09:12:47.302Z,76.50
2022-10-13T09:13:47.225Z,76.80
2022-10-13T09:14:47.247Z,76.60
2022-10-13T09:15:47.207Z,76.29
2022-10-13T09:16:47.226Z,76.06
2022-10-13T09:17:47.445Z,75.76
2022-10-13T09:18:47.196Z,75.35
2022-10-13T09:19:47.203Z,74.84
2022-10-13T09:20:47.151Z,74.81
2022-10-13T09:21:47.145Z,74.30
2022-10-13T09:22:47.114Z,73.96
2022-10-13T09:23:48.256Z,73.86
2022-10-13T09:24:47.831Z,73.52
2022-10-13T09:25:47.114Z,73.52
2022-10-13T09:26:47.543Z,73.46
2022-10-13T09:27:47.072Z,73.25
2022-10-13T09:28:47.131Z,73.05
2022-10-13T09:29:47.113Z,74.00
2022-10-13T09:30:47.060Z,73.86
2022-10-13T09:31:47.029Z,73.32
2022-10-13T09:32:49.087Z,72.61
2022-10-13T09:33:48.633Z,73.02
2022-10-13T09:34:47.958Z,72.28
2022-10-13T09:35:46.992Z,71.67
2022-10-13T09:36:47.705Z,71.97
2022-10-13T09:37:48.226Z,71.64
2022-10-13T09:38:47.930Z,71.13
2022-10-13T09:39:46.924Z,71.33
2022-10-13T09:40:48.419Z,71.23
2022-10-13T09:41:48.718Z,71.47
2022-10-13T09:42:48.945Z,71.33
2022-10-13T09:43:47.106Z,71.23
2022-10-13T09:44:47.798Z,70.62
2022-10-13T09:45:48.139Z,71.17
2022-10-13T09:46:47.659Z,72.51
2022-10-13T09:47:47.100Z,72.72
2022-10-13T09:48:46.799Z,71.97
2022-10-13T09:49:47.284Z,71.80
2022-10-13T09:50:46.831Z,71.80
2022-10-13T09:51:46.932Z,72.72
2022-10-13T09:52:46.985Z,72.41
2022-10-13T09:53:48.362Z,72.61
2022-10-13T09:54:47.425Z,72.08
2022-10-13T09:55:46.719Z,71.03
2022-10-13T09:56:46.707Z,70.49
2022-10-13T09:57:47.193Z,70.15
2022-10-13T09:58:46.692Z,69.45
2022-10-13T09:59:46.712Z,69.24
2022-10-13T10:00:46.903Z,69.21
2022-10-13T10:01:46.677Z,68.21
2022-10-13T10:02:46.660Z,69.24
2022-10-13T10:03:46.694Z,69.45
2022-10-13T10:04:47.109Z,68.71
2022-10-13T10:05:46.744Z,68.95
2022-10-13T10:06:46.616Z,69.58
2022-10-13T10:07:47.436Z,70.42
2022-10-13T10:09:04.224Z,70.22
2022-10-13T10:09:47.058Z,70.73
2022-10-13T10:10:46.907Z,71.06
2022-10-13T10:11:47.888Z,70.73
2022-10-13T10:12:46.491Z,70.32
2022-10-13T10:13:49.121Z,70.62
2022-10-13T10:14:56.997Z,70.39
2022-10-13T10:16:00.336Z,70.32
2022-10-13T10:16:47.016Z,69.68
2022-10-13T10:17:47.315Z,69.28
2022-10-13T10:18:46.431Z,69.58
2022-10-13T10:19:46.437Z,70.02
2022-10-13T10:20:46.458Z,70.42
2022-10-13T10:21:46.386Z,69.48
2022-10-13T10:22:46.706Z,69.62
2022-10-13T10:23:47.134Z,69.98
2022-10-13T10:24:46.343Z,69.78
2022-10-13T10:25:47.007Z,70.12
2022-10-13T10:26:46.541Z,70.12
2022-10-13T10:27:46.308Z,70.22
2022-10-13T10:28:46.431Z,70.96
2022-10-13T10:29:46.338Z,70.93
2022-10-13T10:30:46.533Z,70.32
2022-10-13T10:31:46.997Z,70.62
2022-10-13T10:32:46.409Z,70.39
2022-10-13T10:33:48.084Z,69.58
2022-10-13T10:34:46.248Z,69.18
2022-10-13T10:35:46.487Z,69.58
2022-10-13T10:36:47.036Z,69.45
2022-10-13T10:37:46.179Z,68.81
2022-10-13T10:38:46.169Z,68.41
2022-10-13T10:39:46.189Z,68.44
2022-10-13T10:40:46.400Z,69.68
2022-10-13T10:41:47.213Z,69.24
2022-10-13T10:42:51.814Z,68.61
2022-10-13T10:43:46.116Z,68.84
2022-10-13T10:45:45.994Z,68.61
2022-10-13T10:46:46.076Z,68.17
2022-10-13T10:47:48.424Z,67.60
2022-10-13T10:48:46.059Z,68.95
2022-10-13T10:49:46.071Z,68.54
2022-10-13T10:50:50.576Z,69.38
2022-10-13T10:51:46.035Z,69.78
2022-10-13T10:52:45.969Z,68.54
2022-10-13T10:53:46.023Z,68.64
2022-10-13T10:54:49.106Z,68.84
2022-10-13T10:55:46.143Z,69.04
2022-10-13T10:56:45.934Z,69.48
2022-10-13T10:57:45.949Z,68.95
2022-10-13T10:58:45.979Z,68.41
2022-10-13T10:59:49.086Z,67.57
2022-10-13T11:00:45.883Z,67.13
2022-10-13T11:01:45.947Z,66.93
2022-10-13T11:02:45.862Z,66.76
2022-10-13T11:03:45.879Z,67.36
2022-10-13T11:04:45.820Z,67.03
2022-10-13T11:05:45.845Z,66.39
2022-10-13T11:06:45.816Z,65.29
2022-10-13T11:07:45.810Z,66.63
2022-10-13T11:08:45.965Z,66.86
2022-10-13T11:09:45.913Z,67.80
2022-10-13T11:10:45.758Z,67.80
2022-10-13T11:11:46.617Z,68.21
2022-10-13T11:12:45.778Z,68.44
2022-10-13T11:13:45.741Z,68.24
2022-10-13T11:14:45.706Z,68.44
2022-10-13T11:15:45.719Z,68.81
2022-10-13T11:16:45.682Z,67.67
2022-10-13T11:17:46.443Z,67.03
2022-10-13T11:18:45.646Z,66.19
2022-10-13T11:19:46.460Z,65.36
2022-10-13T11:20:45.690Z,66.19
2022-10-13T11:21:45.628Z,66.63
2022-10-13T11:22:45.608Z,66.50
2022-10-13T11:23:45.632Z,65.86
2022-10-13T11:24:50.162Z,65.62
2022-10-13T11:25:45.584Z,66.02
2022-10-13T11:26:45.588Z,66.53
2022-10-13T11:27:45.525Z,67.36
2022-10-13T11:28:56.547Z,67.07
2022-10-13T11:30:13.924Z,67.07
2022-10-13T11:31:56.780Z,68.51
2022-10-13T11:32:57.301Z,67.97
2022-10-13T11:33:57.296Z,68.01
2022-10-13T11:34:58.228Z,68.61
2022-10-13T11:35:58.708Z,68.30
2022-10-13T11:37:00.506Z,68.84
2022-10-13T11:38:06.873Z,68.84
2022-10-13T11:38:57.228Z,68.64
2022-10-13T11:39:57.231Z,68.54
2022-10-13T11:40:58.287Z,68.84
2022-10-13T11:41:57.180Z,68.95
2022-10-13T11:42:59.251Z,69.24
2022-10-13T11:43:57.393Z,68.95
2022-10-13T11:44:57.238Z,68.33
2022-10-13T11:45:57.759Z,68.44
2022-10-13T11:47:05.514Z,68.98
2022-10-13T11:47:58.102Z,69.48
2022-10-13T11:48:57.536Z,68.95
2022-10-13T11:49:57.091Z,69.04
2022-10-13T11:50:57.302Z,69.08
2022-10-13T11:51:57.052Z,69.28
2022-10-13T11:52:57.134Z,69.38
2022-10-13T11:53:57.296Z,69.35
2022-10-13T11:54:57.057Z,69.18
2022-10-13T11:55:57.011Z,69.48
2022-10-13T11:56:56.969Z,69.48
2022-10-13T11:57:56.971Z,69.48
2022-10-13T11:58:56.966Z,69.24
2022-10-13T11:59:56.941Z,69.45
2022-10-13T12:00:56.992Z,69.68
2022-10-13T12:01:57.320Z,69.75
2022-10-13T12:02:56.990Z,69.35
2022-10-13T12:03:56.895Z,69.55
2022-10-13T12:05:01.930Z,69.98
2022-10-13T12:06:00.619Z,70.19
2022-10-13T12:06:56.875Z,69.78
2022-10-13T12:07:56.875Z,69.98
2022-10-13T12:08:56.837Z,70.09
2022-10-13T12:09:56.841Z,70.19
2022-10-13T12:10:56.834Z,69.85
2022-10-13T12:11:57.083Z,70.09
2022-10-13T12:12:57.735Z,70.39
2022-10-13T12:13:56.813Z,70.73
2022-10-13T12:14:59.852Z,70.69
2022-10-13T12:15:56.822Z,70.49
2022-10-13T12:17:56.747Z,70.39
2022-10-13T12:18:56.710Z,70.93
2022-10-13T12:19:57.700Z,71.33
2022-10-13T12:20:56.694Z,71.23
2022-10-13T12:22:03.206Z,71.44
2022-10-13T12:22:56.663Z,71.44
2022-10-13T12:23:57.150Z,71.33
2022-10-13T12:24:56.647Z,71.44
2022-10-13T12:25:56.628Z,71.44
2022-10-13T12:26:56.610Z,71.87
2022-10-13T12:27:56.603Z,72.08
2022-10-13T12:28:56.686Z,72.28
2022-10-13T12:29:56.568Z,72.04
2022-10-13T12:30:56.567Z,71.73
2022-10-13T12:31:56.545Z,71.84
2022-10-13T12:32:56.588Z,71.94
2022-10-13T12:33:56.552Z,71.94
2022-10-13T12:34:57.164Z,72.04
2022-10-13T12:35:56.698Z,72.28
2022-10-13T12:36:56.659Z,72.55
2022-10-13T12:37:56.726Z,72.48
2022-10-13T12:38:56.503Z,72.78
2022-10-13T12:39:56.635Z,73.28
2022-10-13T12:40:56.515Z,73.08
2022-10-13T12:41:58.104Z,73.28
2022-10-13T12:42:56.427Z,73.69
2022-10-13T12:44:01.199Z,73.49
2022-10-13T12:44:56.462Z,73.59
2022-10-13T12:45:56.370Z,73.83
2022-10-13T12:46:56.340Z,74.33
2022-10-13T12:47:56.384Z,75.04
2022-10-13T12:48:58.262Z,75.45
2022-10-13T12:49:56.560Z,75.79
2022-10-13T12:50:56.278Z,75.99
2022-10-13T12:51:56.295Z,76.50
2022-10-13T12:53:00.424Z,76.70
2022-10-13T12:53:56.240Z,77.61
2022-10-13T12:54:59.728Z,77.44
2022-10-13T12:55:56.212Z,78.55
2022-10-13T12:56:56.443Z,79.26
2022-10-13T12:57:56.191Z,79.97